sensor_id;sensor_type;location;lat;lon;timestamp;pressure;altitude;pressure_sealevel;temperature;humidity
59435;BME280;45241;49.768;8.636;2023-01-28T00:01:36;101024.00;;;3.97;97.76
59435;BME280;45241;49.768;8.636;2023-01-28T00:04:01;101012.78;;;4.15;97.08
59435;BME280;45241;49.768;8.636;2023-01-28T00:06:26;101017.44;;;4.01;97.23
59435;BME280;45241;49.768;8.636;2023-01-28T00:08:52;101017.25;;;3.93;97.33
59435;BME280;45241;49.768;8.636;2023-01-28T00:11:18;101009.91;;;4.06;97.24
59435;BME280;45241;49.768;8.636;2023-01-28T00:13:50;101017.44;;;4.01;98.09
59435;BME280;45241;49.768;8.636;2023-01-28T00:16:15;101014.47;;;4.16;97.19
59435;BME280;45241;49.768;8.636;2023-01-28T00:18:41;101014.75;;;4.22;97.26
59435;BME280;45241;49.768;8.636;2023-01-28T00:21:09;101018.28;;;4.02;97.63
59435;BME280;45241;49.768;8.636;2023-01-28T00:23:37;101019.00;;;4.04;97.17
59435;BME280;45241;49.768;8.636;2023-01-28T00:26:05;101006.75;;;4.13;97.18
59435;BME280;45241;49.768;8.636;2023-01-28T00:28:31;101013.25;;;3.99;97.21
59435;BME280;45241;49.768;8.636;2023-01-28T00:30:57;101017.44;;;4.01;97.73
59435;BME280;45241;49.768;8.636;2023-01-28T00:33:23;101010.53;;;3.89;98.02
59435;BME280;45241;49.768;8.636;2023-01-28T00:35:58;101006.50;;;4.16;95.79
59435;BME280;45241;49.768;8.636;2023-01-28T00:38:25;101001.13;;;4.27;94.57
59435;BME280;45241;49.768;8.636;2023-01-28T00:40:50;101002.34;;;4.53;95.24
59435;BME280;45241;49.768;8.636;2023-01-28T00:43:16;101009.22;;;4.35;96.81
59435;BME280;45241;49.768;8.636;2023-01-28T00:45:41;101002.38;;;4.32;96.13
59435;BME280;45241;49.768;8.636;2023-01-28T00:48:06;101005.72;;;4.25;96.31
59435;BME280;45241;49.768;8.636;2023-01-28T00:50:32;101003.72;;;3.96;96.47
59435;BME280;45241;49.768;8.636;2023-01-28T00:52:57;101009.84;;;4.18;95.38
59435;BME280;45241;49.768;8.636;2023-01-28T00:55:23;101010.63;;;4.09;95.94
59435;BME280;45241;49.768;8.636;2023-01-28T00:57:48;101010.41;;;4.12;96.99
59435;BME280;45241;49.768;8.636;2023-01-28T01:00:14;101012.47;;;3.87;97.64
59435;BME280;45241;49.768;8.636;2023-01-28T01:02:39;101015.44;;;3.94;97.51
59435;BME280;45241;49.768;8.636;2023-01-28T01:05:05;101006.75;;;4.13;96.95
59435;BME280;45241;49.768;8.636;2023-01-28T01:07:30;101003.41;;;4.11;97.08
59435;BME280;45241;49.768;8.636;2023-01-28T01:10:13;101013.63;;;4.15;97.36
59435;BME280;45241;49.768;8.636;2023-01-28T01:12:38;101018.81;;;3.75;97.17
59435;BME280;45241;49.768;8.636;2023-01-28T01:15:06;101015.13;;;3.87;97.03
59435;BME280;45241;49.768;8.636;2023-01-28T01:17:38;101017.81;;;3.76;97.78
59435;BME280;45241;49.768;8.636;2023-01-28T01:20:05;101020.38;;;3.98;97.86
59435;BME280;45241;49.768;8.636;2023-01-28T01:22:32;101018.91;;;3.94;96.79
59435;BME280;45241;49.768;8.636;2023-01-28T01:24:58;101021.56;;;4.36;98.33
59435;BME280;45241;49.768;8.636;2023-01-28T01:27:24;101029.81;;;4.12;96.53
59435;BME280;45241;49.768;8.636;2023-01-28T01:29:49;101027.59;;;3.75;97.59
59435;BME280;45241;49.768;8.636;2023-01-28T01:32:14;101025.16;;;3.84;97.92
59435;BME280;45241;49.768;8.636;2023-01-28T01:34:40;101025.25;;;3.82;99.18
59435;BME280;45241;49.768;8.636;2023-01-28T01:37:05;101030.78;;;3.90;97.79
59435;BME280;45241;49.768;8.636;2023-01-28T01:39:33;101026.31;;;4.12;96.13
59435;BME280;45241;49.768;8.636;2023-01-28T01:41:58;101025.19;;;3.93;97.47
59435;BME280;45241;49.768;8.636;2023-01-28T01:44:59;101032.31;;;3.72;97.61
59435;BME280;45241;49.768;8.636;2023-01-28T01:49:53;101031.34;;;4.15;95.16
59435;BME280;45241;49.768;8.636;2023-01-28T01:52:23;101036.22;;;4.10;95.80
59435;BME280;45241;49.768;8.636;2023-01-28T01:54:52;101032.97;;;4.06;95.82
59435;BME280;45241;49.768;8.636;2023-01-28T01:57:25;101028.25;;;3.57;98.33
59435;BME280;45241;49.768;8.636;2023-01-28T01:59:53;101025.78;;;3.76;98.90
59435;BME280;45241;49.768;8.636;2023-01-28T02:02:19;101030.06;;;3.88;96.46
59435;BME280;45241;49.768;8.636;2023-01-28T02:04:44;101031.94;;;3.76;97.98
59435;BME280;45241;49.768;8.636;2023-01-28T02:07:12;101036.88;;;3.70;97.72
59435;BME280;45241;49.768;8.636;2023-01-28T02:09:39;101031.66;;;3.59;98.03
59435;BME280;45241;49.768;8.636;2023-01-28T02:12:12;101031.59;;;3.91;97.24
59435;BME280;45241;49.768;8.636;2023-01-28T02:14:42;101035.72;;;3.63;97.02
59435;BME280;45241;49.768;8.636;2023-01-28T02:17:08;101038.03;;;3.88;96.02
59435;BME280;45241;49.768;8.636;2023-01-28T02:19:42;101037.25;;;3.97;94.68
59435;BME280;45241;49.768;8.636;2023-01-28T02:23:05;101036.09;;;4.11;96.44
59435;BME280;45241;49.768;8.636;2023-01-28T02:30:39;101043.31;;;3.88;94.17
59435;BME280;45241;49.768;8.636;2023-01-28T02:33:50;101036.56;;;3.63;95.09
59435;BME280;45241;49.768;8.636;2023-01-28T02:38:52;101040.28;;;3.93;94.86
59435;BME280;45241;49.768;8.636;2023-01-28T02:41:30;101034.41;;;3.89;94.68
59435;BME280;45241;49.768;8.636;2023-01-28T02:44:00;101040.16;;;3.94;94.55
59435;BME280;45241;49.768;8.636;2023-01-28T02:49:24;101049.22;;;3.92;94.15
59435;BME280;45241;49.768;8.636;2023-01-28T03:00:18;101047.31;;;3.83;93.56
59435;BME280;45241;49.768;8.636;2023-01-28T03:02:52;101047.75;;;3.67;95.27
59435;BME280;45241;49.768;8.636;2023-01-28T03:07:58;101050.66;;;3.64;94.83
59435;BME280;45241;49.768;8.636;2023-01-28T03:10:25;101045.59;;;3.72;94.73
59435;BME280;45241;49.768;8.636;2023-01-28T03:12:55;101048.59;;;3.67;95.29
59435;BME280;45241;49.768;8.636;2023-01-28T03:15:43;101052.19;;;3.78;96.32
59435;BME280;45241;49.768;8.636;2023-01-28T03:18:42;101049.50;;;4.10;93.95
59435;BME280;45241;49.768;8.636;2023-01-28T03:21:33;101053.97;;;3.77;95.65
59435;BME280;45241;49.768;8.636;2023-01-28T03:24:27;101051.38;;;3.66;96.30
59435;BME280;45241;49.768;8.636;2023-01-28T03:27:46;101054.06;;;3.55;96.44
59435;BME280;45241;49.768;8.636;2023-01-28T03:30:37;101054.91;;;3.87;97.18
59435;BME280;45241;49.768;8.636;2023-01-28T03:33:23;101063.56;;;3.57;96.49
59435;BME280;45241;49.768;8.636;2023-01-28T03:36:08;101067.19;;;3.56;96.07
59435;BME280;45241;49.768;8.636;2023-01-28T03:38:52;101062.56;;;3.69;95.76
59435;BME280;45241;49.768;8.636;2023-01-28T03:41:23;101070.03;;;3.96;94.36
59435;BME280;45241;49.768;8.636;2023-01-28T03:43:49;101071.84;;;3.75;96.47
59435;BME280;45241;49.768;8.636;2023-01-28T03:46:15;101079.56;;;3.67;94.99
59435;BME280;45241;49.768;8.636;2023-01-28T03:48:41;101077.53;;;3.70;94.76
59435;BME280;45241;49.768;8.636;2023-01-28T03:51:06;101072.69;;;3.75;94.84
59435;BME280;45241;49.768;8.636;2023-01-28T03:53:31;101081.88;;;3.71;95.62
59435;BME280;45241;49.768;8.636;2023-01-28T03:55:57;101077.22;;;3.53;96.66
59435;BME280;45241;49.768;8.636;2023-01-28T03:58:23;101083.88;;;3.47;95.86
59435;BME280;45241;49.768;8.636;2023-01-28T04:01:10;101085.81;;;3.77;94.59
59435;BME280;45241;49.768;8.636;2023-01-28T04:03:36;101087.75;;;3.75;96.00
59435;BME280;45241;49.768;8.636;2023-01-28T04:06:06;101088.09;;;3.38;95.47
59435;BME280;45241;49.768;8.636;2023-01-28T04:08:32;101089.03;;;3.60;95.84
59435;BME280;45241;49.768;8.636;2023-01-28T04:10:58;101090.59;;;3.51;95.99
59435;BME280;45241;49.768;8.636;2023-01-28T04:13:42;101089.16;;;3.58;94.56
59435;BME280;45241;49.768;8.636;2023-01-28T04:16:08;101092.88;;;3.56;94.49
59435;BME280;45241;49.768;8.636;2023-01-28T04:18:34;101092.63;;;3.59;95.84
59435;BME280;45241;49.768;8.636;2023-01-28T04:20:59;101093.91;;;3.32;96.70
59435;BME280;45241;49.768;8.636;2023-01-28T04:23:25;101096.63;;;3.42;95.92
59435;BME280;45241;49.768;8.636;2023-01-28T04:25:50;101094.13;;;3.29;95.45
59435;BME280;45241;49.768;8.636;2023-01-28T04:28:16;101094.09;;;3.52;95.10
59435;BME280;45241;49.768;8.636;2023-01-28T04:30:41;101093.06;;;3.32;95.38
59435;BME280;45241;49.768;8.636;2023-01-28T04:33:06;101098.00;;;3.36;96.02
59435;BME280;45241;49.768;8.636;2023-01-28T04:35:32;101096.19;;;3.69;94.84
59435;BME280;45241;49.768;8.636;2023-01-28T04:37:57;101094.81;;;3.42;95.75
59435;BME280;45241;49.768;8.636;2023-01-28T04:40:22;101095.97;;;3.72;94.89
59435;BME280;45241;49.768;8.636;2023-01-28T04:42:54;101092.50;;;3.60;94.87
59435;BME280;45241;49.768;8.636;2023-01-28T04:45:20;101093.84;;;3.55;94.31
59435;BME280;45241;49.768;8.636;2023-01-28T04:47:46;101106.44;;;3.73;95.26
59435;BME280;45241;49.768;8.636;2023-01-28T04:50:11;101101.88;;;3.32;95.87
59435;BME280;45241;49.768;8.636;2023-01-28T04:52:36;101097.00;;;3.49;97.24
59435;BME280;45241;49.768;8.636;2023-01-28T04:55:02;101097.88;;;3.27;96.72
59435;BME280;45241;49.768;8.636;2023-01-28T04:57:28;101092.34;;;3.73;94.86
59435;BME280;45241;49.768;8.636;2023-01-28T04:59:53;101100.22;;;3.63;95.61
59435;BME280;45241;49.768;8.636;2023-01-28T05:02:18;101097.00;;;3.49;95.71
59435;BME280;45241;49.768;8.636;2023-01-28T05:04:44;101097.19;;;3.57;95.86
59435;BME280;45241;49.768;8.636;2023-01-28T05:07:09;101106.25;;;3.54;95.25
59435;BME280;45241;49.768;8.636;2023-01-28T05:09:34;101100.16;;;3.74;96.73
59435;BME280;45241;49.768;8.636;2023-01-28T05:12:01;101109.03;;;3.53;94.86
59435;BME280;45241;49.768;8.636;2023-01-28T05:14:26;101104.38;;;3.34;97.05
59435;BME280;45241;49.768;8.636;2023-01-28T05:16:51;101115.03;;;3.55;95.16
59435;BME280;45241;49.768;8.636;2023-01-28T05:19:16;101108.22;;;3.41;95.69
59435;BME280;45241;49.768;8.636;2023-01-28T05:21:42;101110.59;;;3.44;96.86
59435;BME280;45241;49.768;8.636;2023-01-28T05:24:07;101115.06;;;3.43;97.08
59435;BME280;45241;49.768;8.636;2023-01-28T05:26:32;101115.31;;;3.40;97.37
59435;BME280;45241;49.768;8.636;2023-01-28T05:28:58;101113.06;;;3.68;95.31
59435;BME280;45241;49.768;8.636;2023-01-28T05:31:23;101108.00;;;3.33;95.41
59435;BME280;45241;49.768;8.636;2023-01-28T05:33:48;101117.50;;;3.46;96.51
59435;BME280;45241;49.768;8.636;2023-01-28T05:36:14;101121.47;;;3.30;96.58
59435;BME280;45241;49.768;8.636;2023-01-28T05:38:39;101121.59;;;3.39;96.96
59435;BME280;45241;49.768;8.636;2023-01-28T05:41:04;101132.59;;;3.67;96.77
59435;BME280;45241;49.768;8.636;2023-01-28T05:43:30;101136.91;;;3.13;97.93
59435;BME280;45241;49.768;8.636;2023-01-28T05:45:55;101128.94;;;3.36;97.31
59435;BME280;45241;49.768;8.636;2023-01-28T05:48:20;101130.75;;;3.46;97.69
59435;BME280;45241;49.768;8.636;2023-01-28T05:50:46;101134.38;;;3.34;96.64
59435;BME280;45241;49.768;8.636;2023-01-28T05:53:12;101131.44;;;3.60;95.86
59435;BME280;45241;49.768;8.636;2023-01-28T05:55:37;101130.63;;;3.37;96.01
59435;BME280;45241;49.768;8.636;2023-01-28T05:58:02;101145.03;;;3.55;96.64
59435;BME280;45241;49.768;8.636;2023-01-28T06:00:28;101143.53;;;3.30;96.39
59435;BME280;45241;49.768;8.636;2023-01-28T06:02:53;101146.28;;;3.51;95.88
59435;BME280;45241;49.768;8.636;2023-01-28T06:05:19;101152.00;;;3.67;94.67
59435;BME280;45241;49.768;8.636;2023-01-28T06:07:45;101155.91;;;3.95;94.15
59435;BME280;45241;49.768;8.636;2023-01-28T06:10:11;101160.28;;;3.85;94.32
59435;BME280;45241;49.768;8.636;2023-01-28T06:12:36;101156.50;;;3.99;94.70
59435;BME280;45241;49.768;8.636;2023-01-28T06:15:02;101158.69;;;3.39;95.59
59435;BME280;45241;49.768;8.636;2023-01-28T06:17:28;101168.84;;;3.23;97.03
59435;BME280;45241;49.768;8.636;2023-01-28T06:19:53;101163.91;;;3.19;96.81
59435;BME280;45241;49.768;8.636;2023-01-28T06:22:18;101177.03;;;3.20;96.68
59435;BME280;45241;49.768;8.636;2023-01-28T06:24:44;101179.38;;;3.57;95.16
59435;BME280;45241;49.768;8.636;2023-01-28T06:27:09;101175.09;;;3.44;96.20
59435;BME280;45241;49.768;8.636;2023-01-28T06:29:34;101187.47;;;3.55;95.00
59435;BME280;45241;49.768;8.636;2023-01-28T06:31:59;101184.22;;;3.40;95.25
59435;BME280;45241;49.768;8.636;2023-01-28T06:34:25;101187.38;;;3.23;96.24
59435;BME280;45241;49.768;8.636;2023-01-28T06:36:50;101187.97;;;3.27;95.53
59435;BME280;45241;49.768;8.636;2023-01-28T06:39:17;101197.88;;;3.36;95.27
59435;BME280;45241;49.768;8.636;2023-01-28T06:41:42;101196.56;;;3.19;95.52
59435;BME280;45241;49.768;8.636;2023-01-28T06:44:08;101198.94;;;3.00;95.69
59435;BME280;45241;49.768;8.636;2023-01-28T06:46:33;101203.66;;;3.07;95.01
59435;BME280;45241;49.768;8.636;2023-01-28T06:48:58;101193.91;;;3.19;94.62
59435;BME280;45241;49.768;8.636;2023-01-28T06:51:24;101204.84;;;3.14;94.31
59435;BME280;45241;49.768;8.636;2023-01-28T06:53:49;101190.75;;;3.47;93.69
59435;BME280;45241;49.768;8.636;2023-01-28T06:56:14;101202.19;;;3.26;93.43
59435;BME280;45241;49.768;8.636;2023-01-28T06:58:40;101209.31;;;3.36;93.93
59435;BME280;45241;49.768;8.636;2023-01-28T07:01:05;101215.56;;;3.35;93.37
59435;BME280;45241;49.768;8.636;2023-01-28T07:03:30;101210.03;;;3.50;92.71
59435;BME280;45241;49.768;8.636;2023-01-28T07:05:55;101217.50;;;3.33;91.47
59435;BME280;45241;49.768;8.636;2023-01-28T07:08:21;101217.84;;;3.40;92.07
59435;BME280;45241;49.768;8.636;2023-01-28T07:10:46;101220.25;;;3.43;92.47
59435;BME280;45241;49.768;8.636;2023-01-28T07:13:13;101219.66;;;3.39;92.63
59435;BME280;45241;49.768;8.636;2023-01-28T07:15:38;101218.69;;;3.52;91.19
59435;BME280;45241;49.768;8.636;2023-01-28T07:18:03;101221.34;;;3.40;92.53
59435;BME280;45241;49.768;8.636;2023-01-28T07:20:30;101225.69;;;3.53;92.32
59435;BME280;45241;49.768;8.636;2023-01-28T07:22:55;101226.16;;;3.24;92.20
59435;BME280;45241;49.768;8.636;2023-01-28T07:25:20;101220.75;;;3.37;91.98
59435;BME280;45241;49.768;8.636;2023-01-28T07:27:48;101216.88;;;3.63;92.26
59435;BME280;45241;49.768;8.636;2023-01-28T07:30:13;101215.31;;;3.27;92.43
59435;BME280;45241;49.768;8.636;2023-01-28T07:32:39;101214.22;;;3.41;91.93
59435;BME280;45241;49.768;8.636;2023-01-28T07:35:05;101211.44;;;3.54;92.65
59435;BME280;45241;49.768;8.636;2023-01-28T07:37:30;101219.19;;;3.23;92.19
59435;BME280;45241;49.768;8.636;2023-01-28T07:39:56;101211.00;;;3.26;92.48
59435;BME280;45241;49.768;8.636;2023-01-28T07:42:21;101218.44;;;3.55;92.20
59435;BME280;45241;49.768;8.636;2023-01-28T07:44:46;101212.66;;;3.50;91.46
59435;BME280;45241;49.768;8.636;2023-01-28T07:47:11;101222.56;;;3.47;91.31
59435;BME280;45241;49.768;8.636;2023-01-28T07:49:37;101223.47;;;3.69;92.44
59435;BME280;45241;49.768;8.636;2023-01-28T07:52:04;101221.53;;;3.82;89.31
59435;BME280;45241;49.768;8.636;2023-01-28T07:54:29;101229.88;;;3.55;90.88
59435;BME280;45241;49.768;8.636;2023-01-28T07:56:55;101234.47;;;3.31;90.59
59435;BME280;45241;49.768;8.636;2023-01-28T07:59:21;101235.56;;;3.62;91.55
59435;BME280;45241;49.768;8.636;2023-01-28T08:01:46;101229.03;;;3.43;90.91
59435;BME280;45241;49.768;8.636;2023-01-28T08:04:12;101240.59;;;3.87;90.98
59435;BME280;45241;49.768;8.636;2023-01-28T08:06:37;101241.13;;;3.36;89.74
59435;BME280;45241;49.768;8.636;2023-01-28T08:09:04;101247.38;;;3.46;90.56
59435;BME280;45241;49.768;8.636;2023-01-28T08:11:31;101251.47;;;3.39;90.59
59435;BME280;45241;49.768;8.636;2023-01-28T08:13:57;101253.75;;;3.44;90.96
59435;BME280;45241;49.768;8.636;2023-01-28T08:16:22;101261.81;;;3.42;90.36
59435;BME280;45241;49.768;8.636;2023-01-28T08:18:47;101257.69;;;3.83;88.78
59435;BME280;45241;49.768;8.636;2023-01-28T08:21:12;101257.75;;;3.61;89.17
59435;BME280;45241;49.768;8.636;2023-01-28T08:23:38;101258.06;;;3.67;89.70
59435;BME280;45241;49.768;8.636;2023-01-28T08:26:03;101253.41;;;3.60;90.61
59435;BME280;45241;49.768;8.636;2023-01-28T08:28:28;101257.59;;;3.85;88.79
59435;BME280;45241;49.768;8.636;2023-01-28T08:30:54;101252.38;;;3.94;87.63
59435;BME280;45241;49.768;8.636;2023-01-28T08:33:20;101261.94;;;3.63;89.11
59435;BME280;45241;49.768;8.636;2023-01-28T08:35:45;101268.22;;;3.40;89.05
59435;BME280;45241;49.768;8.636;2023-01-28T08:38:12;101262.31;;;3.59;88.38
59435;BME280;45241;49.768;8.636;2023-01-28T08:40:39;101260.84;;;3.88;88.14
59435;BME280;45241;49.768;8.636;2023-01-28T08:43:04;101257.34;;;3.88;88.14
59435;BME280;45241;49.768;8.636;2023-01-28T08:45:30;101269.63;;;3.89;87.47
59435;BME280;45241;49.768;8.636;2023-01-28T08:48:02;101262.53;;;3.89;87.42
59435;BME280;45241;49.768;8.636;2023-01-28T08:50:32;101265.44;;;3.75;88.32
59435;BME280;45241;49.768;8.636;2023-01-28T08:52:59;101266.78;;;3.47;88.16
59435;BME280;45241;49.768;8.636;2023-01-28T08:55:26;101260.13;;;3.75;86.60
59435;BME280;45241;49.768;8.636;2023-01-28T08:57:51;101263.88;;;3.72;86.99
59435;BME280;45241;49.768;8.636;2023-01-28T09:00:17;101265.69;;;3.72;87.63
59435;BME280;45241;49.768;8.636;2023-01-28T09:02:43;101265.78;;;3.82;87.56
59435;BME280;45241;49.768;8.636;2023-01-28T09:05:09;101265.91;;;3.69;87.52
59435;BME280;45241;49.768;8.636;2023-01-28T09:07:36;101269.38;;;4.03;86.29
59435;BME280;45241;49.768;8.636;2023-01-28T09:10:02;101266.19;;;4.09;86.39
59435;BME280;45241;49.768;8.636;2023-01-28T09:12:27;101273.25;;;3.88;85.61
59435;BME280;45241;49.768;8.636;2023-01-28T09:14:52;101276.41;;;3.70;85.33
59435;BME280;45241;49.768;8.636;2023-01-28T09:17:19;101282.56;;;3.71;85.47
59435;BME280;45241;49.768;8.636;2023-01-28T09:19:44;101276.75;;;3.77;85.39
59435;BME280;45241;49.768;8.636;2023-01-28T09:22:10;101288.69;;;3.83;85.07
59435;BME280;45241;49.768;8.636;2023-01-28T09:24:35;101286.03;;;3.94;84.32
59435;BME280;45241;49.768;8.636;2023-01-28T09:27:00;101285.81;;;3.86;84.19
59435;BME280;45241;49.768;8.636;2023-01-28T09:29:25;101290.28;;;3.85;84.35
59435;BME280;45241;49.768;8.636;2023-01-28T09:31:51;101291.81;;;3.88;85.02
59435;BME280;45241;49.768;8.636;2023-01-28T09:34:16;101293.50;;;4.00;84.42
59435;BME280;45241;49.768;8.636;2023-01-28T09:36:41;101291.47;;;3.70;84.35
59435;BME280;45241;49.768;8.636;2023-01-28T09:39:07;101300.25;;;4.04;83.14
59435;BME280;45241;49.768;8.636;2023-01-28T09:41:43;101298.16;;;4.19;83.25
59435;BME280;45241;49.768;8.636;2023-01-28T09:44:24;101293.09;;;4.16;84.07
59435;BME280;45241;49.768;8.636;2023-01-28T09:46:51;101298.19;;;3.96;83.42
59435;BME280;45241;49.768;8.636;2023-01-28T09:49:25;101296.16;;;4.00;83.09
59435;BME280;45241;49.768;8.636;2023-01-28T09:51:55;101296.00;;;4.24;82.42
59435;BME280;45241;49.768;8.636;2023-01-28T09:54:44;101294.69;;;4.07;82.50
59435;BME280;45241;49.768;8.636;2023-01-28T09:57:19;101290.16;;;4.30;81.93
59435;BME280;45241;49.768;8.636;2023-01-28T09:59:47;101302.28;;;4.12;81.93
59435;BME280;45241;49.768;8.636;2023-01-28T10:08:05;101304.78;;;4.24;82.03
59435;BME280;45241;49.768;8.636;2023-01-28T10:10:56;101301.22;;;4.46;80.72
59435;BME280;45241;49.768;8.636;2023-01-28T10:13:45;101299.69;;;4.32;81.80
59435;BME280;45241;49.768;8.636;2023-01-28T10:19:13;101303.78;;;4.37;80.81
59435;BME280;45241;49.768;8.636;2023-01-28T10:22:02;101303.66;;;4.38;79.99
59435;BME280;45241;49.768;8.636;2023-01-28T10:24:33;101299.56;;;4.34;79.92
59435;BME280;45241;49.768;8.636;2023-01-28T10:27:01;101307.88;;;4.41;80.43
59435;BME280;45241;49.768;8.636;2023-01-28T10:29:29;101302.81;;;4.38;80.10
59435;BME280;45241;49.768;8.636;2023-01-28T10:34:46;101304.47;;;4.50;79.85
59435;BME280;45241;49.768;8.636;2023-01-28T10:37:13;101310.25;;;4.55;79.33
59435;BME280;45241;49.768;8.636;2023-01-28T10:39:39;101312.97;;;4.32;77.97
59435;BME280;45241;49.768;8.636;2023-01-28T10:42:29;101309.84;;;4.59;78.28
59435;BME280;45241;49.768;8.636;2023-01-28T10:45:02;101312.59;;;4.69;78.48
59435;BME280;45241;49.768;8.636;2023-01-28T10:47:36;101318.50;;;4.73;77.46
59435;BME280;45241;49.768;8.636;2023-01-28T10:50:04;101320.47;;;4.59;78.00
59435;BME280;45241;49.768;8.636;2023-01-28T10:52:29;101314.38;;;4.80;76.63
59435;BME280;45241;49.768;8.636;2023-01-28T10:55:03;101315.50;;;4.66;77.59
59435;BME280;45241;49.768;8.636;2023-01-28T10:57:32;101321.41;;;4.70;76.97
59435;BME280;45241;49.768;8.636;2023-01-28T11:00:09;101325.34;;;4.54;76.19
59435;BME280;45241;49.768;8.636;2023-01-28T11:02:35;101320.13;;;4.85;76.65
59435;BME280;45241;49.768;8.636;2023-01-28T11:05:13;101316.31;;;4.78;76.32
59435;BME280;45241;49.768;8.636;2023-01-28T11:07:40;101317.16;;;4.78;75.85
59435;BME280;45241;49.768;8.636;2023-01-28T11:10:38;101313.97;;;4.84;75.19
59435;BME280;45241;49.768;8.636;2023-01-28T11:13:11;101314.50;;;4.78;75.66
59435;BME280;45241;49.768;8.636;2023-01-28T11:15:45;101317.75;;;4.82;75.73
59435;BME280;45241;49.768;8.636;2023-01-28T11:18:21;101320.03;;;4.54;75.49
59435;BME280;45241;49.768;8.636;2023-01-28T11:20:51;101323.75;;;4.84;75.44
59435;BME280;45241;49.768;8.636;2023-01-28T11:23:22;101324.47;;;4.86;74.96
59435;BME280;45241;49.768;8.636;2023-01-28T11:25:48;101321.53;;;4.68;74.10
59435;BME280;45241;49.768;8.636;2023-01-28T11:28:17;101326.41;;;4.63;73.91
59435;BME280;45241;49.768;8.636;2023-01-28T11:30:49;101328.63;;;5.00;73.54
59435;BME280;45241;49.768;8.636;2023-01-28T11:33:34;101312.63;;;4.90;74.38
59435;BME280;45241;49.768;8.636;2023-01-28T11:36:13;101309.28;;;4.56;74.46
59435;BME280;45241;49.768;8.636;2023-01-28T11:38:56;101311.47;;;4.51;73.74
59435;BME280;45241;49.768;8.636;2023-01-28T11:41:34;101315.97;;;4.71;73.82
59435;BME280;45241;49.768;8.636;2023-01-28T11:44:16;101312.16;;;4.64;73.99
59435;BME280;45241;49.768;8.636;2023-01-28T11:47:34;101308.97;;;4.70;74.28
59435;BME280;45241;49.768;8.636;2023-01-28T11:50:21;101307.81;;;4.63;73.66
59435;BME280;45241;49.768;8.636;2023-01-28T11:52:59;101309.50;;;4.85;73.61
59435;BME280;45241;49.768;8.636;2023-01-28T11:55:42;101303.75;;;4.80;74.42
59435;BME280;45241;49.768;8.636;2023-01-28T12:01:03;101308.47;;;4.44;75.03
59435;BME280;45241;49.768;8.636;2023-01-28T12:03:47;101310.78;;;4.70;74.55
59435;BME280;45241;49.768;8.636;2023-01-28T12:20:17;101297.91;;;4.65;75.40
59435;BME280;45241;49.768;8.636;2023-01-28T12:28:07;101289.56;;;4.58;75.34
59435;BME280;45241;49.768;8.636;2023-01-28T12:30:52;101291.50;;;4.88;73.74
59435;BME280;45241;49.768;8.636;2023-01-28T12:36:34;101290.69;;;4.56;74.98
59435;BME280;45241;49.768;8.636;2023-01-28T12:41:50;101294.94;;;4.47;73.91
59435;BME280;45241;49.768;8.636;2023-01-28T12:44:31;101295.09;;;4.34;74.95
59435;BME280;45241;49.768;8.636;2023-01-28T12:47:11;101298.25;;;4.60;74.78
59435;BME280;45241;49.768;8.636;2023-01-28T12:49:55;101290.25;;;4.40;74.23
59435;BME280;45241;49.768;8.636;2023-01-28T12:52:30;101290.16;;;4.30;74.70
59435;BME280;45241;49.768;8.636;2023-01-28T12:55:12;101286.94;;;4.15;75.05
59435;BME280;45241;49.768;8.636;2023-01-28T12:57:40;101293.63;;;4.10;75.14
59435;BME280;45241;49.768;8.636;2023-01-28T13:00:14;101288.63;;;4.16;74.70
59435;BME280;45241;49.768;8.636;2023-01-28T13:02:48;101292.72;;;4.20;74.36
59435;BME280;45241;49.768;8.636;2023-01-28T13:05:19;101278.28;;;4.45;74.08
59435;BME280;45241;49.768;8.636;2023-01-28T13:08:02;101284.63;;;4.22;74.50
59435;BME280;45241;49.768;8.636;2023-01-28T13:10:41;101286.94;;;4.58;73.43
59435;BME280;45241;49.768;8.636;2023-01-28T13:13:32;101284.59;;;4.33;73.89
59435;BME280;45241;49.768;8.636;2023-01-28T13:15:57;101276.75;;;4.31;75.11
59435;BME280;45241;49.768;8.636;2023-01-28T13:18:46;101282.16;;;4.41;74.20
59435;BME280;45241;49.768;8.636;2023-01-28T13:21:29;101289.44;;;4.39;74.54
59435;BME280;45241;49.768;8.636;2023-01-28T13:24:18;101297.47;;;4.05;73.62
59435;BME280;45241;49.768;8.636;2023-01-28T13:26:49;101287.22;;;4.12;74.02
59435;BME280;45241;49.768;8.636;2023-01-28T13:31:55;101304.41;;;4.29;74.52
59435;BME280;45241;49.768;8.636;2023-01-28T13:34:36;101303.75;;;3.93;74.18
59435;BME280;45241;49.768;8.636;2023-01-28T13:37:29;101303.22;;;4.22;75.24
59435;BME280;45241;49.768;8.636;2023-01-28T13:40:23;101319.97;;;4.22;75.88
59435;BME280;45241;49.768;8.636;2023-01-28T13:42:58;101323.84;;;4.18;74.82
59435;BME280;45241;49.768;8.636;2023-01-28T13:45:25;101325.22;;;4.01;74.52
59435;BME280;45241;49.768;8.636;2023-01-28T13:48:04;101329.81;;;3.99;74.16
59435;BME280;45241;49.768;8.636;2023-01-28T13:50:40;101332.84;;;3.72;74.29
59435;BME280;45241;49.768;8.636;2023-01-28T13:53:23;101336.06;;;3.76;74.90
59435;BME280;45241;49.768;8.636;2023-01-28T13:55:56;101345.00;;;3.86;76.13
59435;BME280;45241;49.768;8.636;2023-01-28T13:58:50;101339.78;;;3.96;74.30
59435;BME280;45241;49.768;8.636;2023-01-28T14:14:55;101346.88;;;3.39;74.94
59435;BME280;45241;49.768;8.636;2023-01-28T14:17:43;101351.13;;;3.64;74.70
59435;BME280;45241;49.768;8.636;2023-01-28T14:20:24;101357.28;;;3.76;75.04
59435;BME280;45241;49.768;8.636;2023-01-28T14:23:14;101362.59;;;3.87;73.03
59435;BME280;45241;49.768;8.636;2023-01-28T14:28:18;101359.25;;;3.85;73.54
59435;BME280;45241;49.768;8.636;2023-01-28T14:30:53;101364.78;;;3.71;73.51
59435;BME280;45241;49.768;8.636;2023-01-28T14:33:20;101372.63;;;3.84;72.25
59435;BME280;45241;49.768;8.636;2023-01-28T14:35:47;101366.22;;;3.86;71.84
59435;BME280;45241;49.768;8.636;2023-01-28T14:38:16;101358.50;;;3.83;72.61
59435;BME280;45241;49.768;8.636;2023-01-28T14:40:43;101368.63;;;3.67;72.70